Burwash Airport
CYDB : now visible

Airfield :











YOU CAN JOIN US ON...

 
LOGIN :

Register | Disclaimer

   EN    FR    IT 

 









Legend :    VFR   Marginal VFR   IFR   Intensive IFR   Very Intensive IFR
Visi :
Ceiling :
>= 8 km
>= 3000ft
5 to 8 km
1000 to 3000 ft
1500m to 5 km
500 to 1000 ft
800 to 1500m
200 to 500 ft
< 800m
< 200 ft
Symbols :   Thunderstorms  Fog  Heavy snow  Heavy precipitations  Wind > 20 kt






- Airport Elevation : 2647 ft
- IATA code : YDB


CYDB - Burwash

CURRENT METAR :
  • 190800Z AUTO VRB02KT 9SM CLR M04/M05 A2969 RMK SLP087

EXPIRED METARs :
  • 190700Z AUTO 28003KT 190V290 9SM CLR M02/M03 A2968 RMK SLP082
  • 190600Z AUTO 29003KT 9SM CLR M02/M03 A2967 RMK SLP080
  • 190500Z AUTO VRB02KT 9SM CLR M01/M02 A2965 RMK SLP073

TAF TAF CYDB
Valid from the 19 at 06:00 until the 19 at 18:00 UTC


190538Z 1906/1918 VRB03KT P6SM SCT040
FM191600 13006KT P6SM SCT060 BKN120 RMK FCST BASED ON AUTO OBS. NXT FCST BY 191200Z
CZEG FIR / North America



MET'MAP, your aeronautical weather chart ! - Copyright ORBIFLY December 2007 - Disclaimer

ORBIFLY MET'MAP TEAM :

Programming & Development : Alexandra Zaïnal
Concept & original design : Baudouin d'Aumeries
Assistance for programming : Marc-Olivier Méhu
Technical & hardware support : Manuel Goepfert

Contact : metmap@orbifly.com




SOURCES & CREDITS :

   NOAA       Earth
Advisory